Hauptseite
METAR-TAF:

METAR-TAF

Flughäfen :

Flughafen Kavala

Kavala, Griechenland

Breite: 40-59N, Länge: 024-36E, Höhe: 5 m

Beobachtung

Neuester Wetterbericht von vor 39 Minuten, um 16:50 UTC
Wind 4 kt aus Nord/Nordwest
Temperatur 8°C
Luftfeuchtigkeit 81%
Luftdruck 1025 hPa
Sichtweite 10 km oder mehr
Leicht bewölkt in der Höhe von 2500 ft

METAR: LGKV 251650Z 34004KT 9999 FEW025 08/05 Q1025

Zeit: 19:29 (17:29 UTC)

Prognose

Neuester Wetterbericht von vor 6 Stunden und 29 Minuten, um 11:00 UTC
Gültige Prognose vom 25 um 12 UTC bis 26 um 12 UTC
Wind 3 kt aus unterschiedlichen Richtungen
Sichtweite 10 km oder mehr
Leicht bewölkt in der Höhe von 2500 ft

TAF: LGKV 251100Z 2512/2612 VRB03KT 9999 FEW025

Wetterbeobachtungen und Prognosen von mehr als 4000 Flughäfen (METAR und TAF Bericht).

Die verfügbaren Stationen werden durch gelbe und rote Markierungen auf der Karte dargestellt.

Führen Sie die Maus auf sie, um den Namen der Station zu sehen.

Darauf klicken, um die Beobachtung von Wetterbeobachtungen und Prognosen zu sehen.

Um die Karte zu ändern : klicken Sie auf den grünen Tasten mit einem schwarzen Kreuz Zum Vergrößern, auf den grünen Button mit einem Gedankenstrich zu verkleinern, oder auf die grünen Pfeile für benachbarte Karten.


METAR-TAF: